createdAt,value
2022-10-01T00:00:00.737Z,7.7
2022-10-01T00:03:00.820Z,7.7
2022-10-01T00:06:00.754Z,7.7
2022-10-01T00:09:00.781Z,7.7
2022-10-01T00:12:00.902Z,7.7
2022-10-01T00:15:06.229Z,7.7
2022-10-01T00:18:00.721Z,7.7
2022-10-01T00:21:01.215Z,7.7
2022-10-01T00:24:00.775Z,7.7
2022-10-01T00:27:00.729Z,7.7
2022-10-01T00:30:00.763Z,7.7
2022-10-01T00:33:00.686Z,7.7
2022-10-01T00:36:00.747Z,7.7
2022-10-01T00:39:01.078Z,7.7
2022-10-01T00:42:00.716Z,7.7
2022-10-01T00:45:00.767Z,7.7
2022-10-01T00:48:00.790Z,7.6
2022-10-01T00:51:00.714Z,7.6
2022-10-01T00:54:00.796Z,7.6
2022-10-01T00:57:00.693Z,7.6
2022-10-01T01:00:00.740Z,7.6
2022-10-01T01:03:00.721Z,7.6
2022-10-01T01:06:00.725Z,7.7
2022-10-01T01:09:00.774Z,7.7
2022-10-01T01:12:00.720Z,7.7
2022-10-01T01:15:00.835Z,7.7
2022-10-01T01:18:00.734Z,7.7
2022-10-01T01:21:00.681Z,7.7
2022-10-01T01:24:00.677Z,7.7
2022-10-01T01:27:00.720Z,7.7
2022-10-01T01:30:00.733Z,7.8
2022-10-01T01:33:00.679Z,7.8
2022-10-01T01:36:00.715Z,7.8
2022-10-01T01:39:00.724Z,7.8
2022-10-01T01:42:00.714Z,7.8
2022-10-01T01:45:00.830Z,8.2
2022-10-01T01:48:00.752Z,8.2
2022-10-01T01:51:00.736Z,8.2
2022-10-01T01:54:00.709Z,8.2
2022-10-01T01:57:00.710Z,8.2
2022-10-01T02:00:00.723Z,8.2
2022-10-01T02:03:00.756Z,8.8
2022-10-01T02:06:00.734Z,8.8
2022-10-01T02:09:00.785Z,8.8
2022-10-01T02:12:00.919Z,8.8
2022-10-01T02:15:00.716Z,8.9
2022-10-01T02:18:00.736Z,8.9
2022-10-01T02:21:00.724Z,8.9
2022-10-01T02:24:00.739Z,9
2022-10-01T02:27:00.716Z,9
2022-10-01T02:30:00.738Z,9
2022-10-01T02:33:00.739Z,9
2022-10-01T02:36:00.759Z,9
2022-10-01T02:39:00.761Z,9
2022-10-01T02:42:00.712Z,9
2022-10-01T02:45:00.716Z,9
2022-10-01T02:48:00.668Z,9
2022-10-01T02:51:00.678Z,9
2022-10-01T02:54:00.777Z,9
2022-10-01T02:57:00.706Z,9.1
2022-10-01T03:00:00.765Z,9.1
2022-10-01T03:03:00.878Z,9.1
2022-10-01T03:06:00.739Z,9.1
2022-10-01T03:09:00.724Z,9.1
2022-10-01T03:12:00.719Z,9.1
2022-10-01T03:15:00.752Z,9.4
2022-10-01T03:18:00.689Z,9.4
2022-10-01T03:21:00.725Z,9.4
2022-10-01T03:24:00.742Z,9.4
2022-10-01T03:27:00.704Z,9.7
2022-10-01T03:30:00.791Z,9.7
2022-10-01T03:33:00.785Z,9.7
2022-10-01T03:36:00.712Z,9.7
2022-10-01T03:39:00.734Z,10.1
2022-10-01T03:42:00.762Z,10.1
2022-10-01T03:45:00.710Z,10.1
2022-10-01T03:48:00.705Z,10.1
2022-10-01T03:51:00.731Z,10.1
2022-10-01T03:54:00.721Z,10.1
2022-10-01T03:57:00.723Z,10.1
2022-10-01T04:00:00.857Z,10.1
2022-10-01T04:03:00.856Z,10.5
2022-10-01T04:06:00.685Z,10.5
2022-10-01T04:09:00.718Z,10.5
2022-10-01T04:12:00.737Z,10.5
2022-10-01T04:15:00.710Z,10.7
2022-10-01T04:18:00.693Z,10.7
2022-10-01T04:21:00.694Z,10.7
2022-10-01T04:24:00.703Z,10.7
2022-10-01T04:27:00.696Z,10.7
2022-10-01T04:30:00.760Z,10.7
2022-10-01T04:33:00.735Z,11
2022-10-01T04:36:00.702Z,11
2022-10-01T04:39:03.011Z,11
2022-10-01T04:42:00.732Z,11
2022-10-01T04:45:00.723Z,11
2022-10-01T04:48:00.724Z,11
2022-10-01T04:51:00.748Z,11
2022-10-01T04:54:00.754Z,11
2022-10-01T04:57:00.678Z,11.2
2022-10-01T05:00:00.745Z,11.2
2022-10-01T05:03:00.669Z,11.2
2022-10-01T05:06:00.708Z,11.2
2022-10-01T05:09:00.707Z,11.2
2022-10-01T05:12:00.772Z,11.3
2022-10-01T05:15:00.730Z,11.4
2022-10-01T05:18:00.698Z,11.4
2022-10-01T05:21:00.776Z,11.4
2022-10-01T05:24:01.336Z,11.4
2022-10-01T05:27:00.726Z,11.4
2022-10-01T05:30:00.743Z,11.8
2022-10-01T05:33:00.811Z,11.8
2022-10-01T05:36:00.767Z,11.8
2022-10-01T05:39:00.716Z,11.8
2022-10-01T05:42:06.452Z,11.8
2022-10-01T05:45:00.748Z,11.8
2022-10-01T05:48:00.796Z,11.8
2022-10-01T05:51:00.730Z,11.8
2022-10-01T05:54:00.790Z,11.8
2022-10-01T05:57:00.729Z,11.8
2022-10-01T06:00:00.798Z,11.8
2022-10-01T06:03:00.920Z,11.8
2022-10-01T06:06:00.739Z,11.7
2022-10-01T06:09:00.759Z,11.7
2022-10-01T06:12:00.731Z,11.7
2022-10-01T06:15:00.712Z,11.7
2022-10-01T06:18:00.846Z,11.5
2022-10-01T06:21:00.739Z,11.5
2022-10-01T06:24:00.759Z,11.5
2022-10-01T06:27:00.777Z,11.5
2022-10-01T06:30:00.745Z,11.4
2022-10-01T06:33:00.777Z,11.4
2022-10-01T06:36:00.781Z,11.4
2022-10-01T06:39:00.791Z,11.4
2022-10-01T06:42:00.769Z,11.4
2022-10-01T06:45:00.715Z,11.4
2022-10-01T06:48:00.798Z,11.4
2022-10-01T06:51:00.711Z,11.4
2022-10-01T06:54:00.722Z,11.4
2022-10-01T06:57:00.856Z,11.3
2022-10-01T07:00:00.849Z,11.3
2022-10-01T07:03:00.814Z,11.3
2022-10-01T07:06:00.763Z,11.3
2022-10-01T07:09:00.750Z,11.3
2022-10-01T07:12:00.839Z,11.3
2022-10-01T07:15:00.716Z,11.3
2022-10-01T07:18:00.770Z,11.3
2022-10-01T07:21:00.743Z,11.3
2022-10-01T07:24:00.741Z,11.3
2022-10-01T07:27:07.332Z,11.3
2022-10-01T07:30:00.763Z,11.2
2022-10-01T07:33:00.739Z,11.2
2022-10-01T07:36:00.775Z,11.2
2022-10-01T07:39:00.775Z,11.2
2022-10-01T07:42:00.725Z,11.2
2022-10-01T07:45:00.796Z,11.2
2022-10-01T07:48:00.757Z,11.2
2022-10-01T07:51:00.760Z,11.2
2022-10-01T07:54:00.770Z,11.2
2022-10-01T07:57:00.777Z,11.2
2022-10-01T08:00:00.853Z,11.2
2022-10-01T08:03:00.761Z,11.2
2022-10-01T08:06:00.766Z,11.2
2022-10-01T08:09:00.763Z,11.2
2022-10-01T08:12:00.708Z,11.2
2022-10-01T08:15:00.791Z,11.2
2022-10-01T08:18:00.771Z,11.2
2022-10-01T08:21:00.806Z,11.2
2022-10-01T08:24:00.735Z,11.2
2022-10-01T08:27:00.785Z,11.2
2022-10-01T08:30:00.839Z,11.2
2022-10-01T08:33:00.743Z,11.2
2022-10-01T08:36:00.739Z,11.2
2022-10-01T08:39:00.766Z,11.2
2022-10-01T08:42:00.753Z,11.2
2022-10-01T08:45:00.791Z,11.3
2022-10-01T08:48:00.767Z,11.3
2022-10-01T08:51:00.723Z,11.3
2022-10-01T08:54:00.811Z,11.3
2022-10-01T08:57:00.727Z,11.3
2022-10-01T09:00:00.837Z,11.3
2022-10-01T09:03:00.698Z,11.3
2022-10-01T09:06:00.747Z,11.3
2022-10-01T09:09:00.739Z,11.3
2022-10-01T09:12:00.778Z,11.7
2022-10-01T09:15:00.786Z,11.7
2022-10-01T09:18:00.792Z,11.7
2022-10-01T09:21:00.745Z,11.7
2022-10-01T09:24:00.723Z,11.7
2022-10-01T09:27:00.782Z,11.7
2022-10-01T09:30:00.786Z,11.7
2022-10-01T09:33:00.840Z,11.7
2022-10-01T09:36:00.782Z,11.7
2022-10-01T09:39:00.908Z,12.1
2022-10-01T09:42:00.765Z,12.2
2022-10-01T09:45:00.739Z,12.2
2022-10-01T09:48:00.779Z,12.2
2022-10-01T09:51:00.787Z,12.2
2022-10-01T09:54:00.776Z,12.2
2022-10-01T09:57:00.770Z,12.2
2022-10-01T10:00:00.837Z,12.2
2022-10-01T10:03:01.081Z,12.2
2022-10-01T10:06:00.770Z,12.2
2022-10-01T10:09:00.806Z,12.2
2022-10-01T10:12:00.723Z,12.7
2022-10-01T10:15:00.750Z,12.7
2022-10-01T10:18:00.780Z,12.7
2022-10-01T10:21:00.739Z,12.7
2022-10-01T10:24:00.755Z,12.7
2022-10-01T10:27:00.845Z,12.7
2022-10-01T10:30:00.820Z,12.7
2022-10-01T10:33:00.734Z,13.2
2022-10-01T10:36:00.817Z,13.2
2022-10-01T10:39:00.783Z,13.2
2022-10-01T10:42:00.764Z,13.2
2022-10-01T10:45:00.808Z,13.2
2022-10-01T10:48:00.770Z,13.5
2022-10-01T10:51:00.743Z,13.5
2022-10-01T10:54:00.829Z,13.5
2022-10-01T10:57:00.716Z,13.5
2022-10-01T11:00:00.820Z,13.5
2022-10-01T11:03:00.744Z,13.5
2022-10-01T11:06:00.816Z,13.5
2022-10-01T11:09:00.837Z,13.5
2022-10-01T11:12:00.766Z,13.5
2022-10-01T11:15:00.737Z,13.5
2022-10-01T11:18:00.805Z,13.5
2022-10-01T11:21:00.741Z,13.5
2022-10-01T11:24:00.818Z,13.5
2022-10-01T11:27:00.746Z,13.5
2022-10-01T11:30:00.784Z,13.5
2022-10-01T11:33:00.751Z,13.6
2022-10-01T11:36:00.765Z,13.6
2022-10-01T11:39:00.746Z,13.6
2022-10-01T11:42:00.750Z,13.6
2022-10-01T11:45:01.247Z,13.6
2022-10-01T11:48:00.777Z,13.6
2022-10-01T11:51:00.821Z,13.6
2022-10-01T11:54:00.728Z,13.9
2022-10-01T11:57:00.724Z,13.9
2022-10-01T12:00:00.878Z,13.9
2022-10-01T12:03:00.726Z,13.9
2022-10-01T12:06:00.790Z,13.9
2022-10-01T12:09:00.716Z,13.9
2022-10-01T12:12:00.782Z,13.9
2022-10-01T12:15:06.859Z,13.9
2022-10-01T12:18:00.937Z,13.9
2022-10-01T12:21:00.806Z,13.9
2022-10-01T12:24:00.742Z,13.9
2022-10-01T12:27:00.753Z,13.9
2022-10-01T12:30:00.801Z,14
2022-10-01T12:33:00.716Z,14
2022-10-01T12:36:00.778Z,14
2022-10-01T12:39:00.836Z,14.2
2022-10-01T12:42:00.737Z,14.2
2022-10-01T12:45:00.750Z,14.2
2022-10-01T12:48:00.722Z,14.2
2022-10-01T12:51:00.776Z,14.2
2022-10-01T12:54:00.798Z,14.2
2022-10-01T12:57:00.754Z,14.2
2022-10-01T13:00:00.782Z,14.2
2022-10-01T13:03:00.781Z,14.2
2022-10-01T13:06:00.793Z,14.7
2022-10-01T13:09:00.769Z,14.7
2022-10-01T13:12:00.831Z,14.7
2022-10-01T13:15:00.733Z,14.7
2022-10-01T13:18:00.778Z,14.7
2022-10-01T13:21:00.782Z,14.7
2022-10-01T13:24:00.840Z,14.7
2022-10-01T13:27:00.720Z,14.7
2022-10-01T13:30:00.884Z,14.9
2022-10-01T13:33:00.783Z,14.9
2022-10-01T13:36:00.776Z,14.9
2022-10-01T13:39:00.788Z,14.9
2022-10-01T13:42:00.783Z,14.9
2022-10-01T13:45:00.795Z,14.9
2022-10-01T13:48:00.765Z,15.1
2022-10-01T13:51:00.743Z,15.1
2022-10-01T13:54:00.752Z,15.1
2022-10-01T13:57:00.694Z,15.1
2022-10-01T14:00:00.811Z,15.1
2022-10-01T14:03:00.873Z,15.1
2022-10-01T14:06:00.778Z,15.1
2022-10-01T14:09:00.779Z,15.1
2022-10-01T14:12:00.826Z,15.1
2022-10-01T14:15:00.755Z,15.1
2022-10-01T14:18:00.761Z,15.1
2022-10-01T14:21:00.743Z,15.1
2022-10-01T14:24:00.808Z,15.3
2022-10-01T14:27:00.756Z,15.3
2022-10-01T14:30:00.773Z,15.3
2022-10-01T14:33:00.770Z,15.3
2022-10-01T14:36:00.746Z,15.3
2022-10-01T14:39:00.730Z,15.3
2022-10-01T14:42:00.787Z,15.3
2022-10-01T14:45:00.729Z,15.3
2022-10-01T14:48:00.771Z,15.3
2022-10-01T14:51:00.702Z,15.3
2022-10-01T14:54:00.819Z,15.3
2022-10-01T14:57:01.530Z,15.3
2022-10-01T15:00:00.812Z,15.4
2022-10-01T15:03:00.834Z,15.4
2022-10-01T15:06:00.773Z,15.2
2022-10-01T15:09:00.818Z,15.2
2022-10-01T15:12:00.717Z,14.6
2022-10-01T15:15:00.713Z,14.6
2022-10-01T15:18:00.767Z,14.6
2022-10-01T15:21:00.742Z,14.1
2022-10-01T15:24:00.752Z,14.1
2022-10-01T15:27:00.776Z,14.1
2022-10-01T15:30:01.000Z,14.1
2022-10-01T15:33:00.728Z,14.1
2022-10-01T15:36:00.820Z,14.1
2022-10-01T15:39:00.844Z,14.1
2022-10-01T15:42:00.779Z,13.6
2022-10-01T15:45:00.716Z,13.6
2022-10-01T15:48:00.753Z,13.6
2022-10-01T15:51:00.764Z,13.6
2022-10-01T15:54:00.768Z,13.6
2022-10-01T15:57:00.825Z,13.6
2022-10-01T16:00:00.765Z,13.6
2022-10-01T16:03:00.832Z,13.6
2022-10-01T16:06:00.781Z,13.4
2022-10-01T16:09:00.771Z,13.4
2022-10-01T16:12:00.759Z,13.3
2022-10-01T16:15:00.783Z,13.3
2022-10-01T16:18:00.759Z,13.3
2022-10-01T16:21:01.017Z,13.3
2022-10-01T16:24:00.708Z,13.3
2022-10-01T16:27:00.748Z,13.3
2022-10-01T16:30:05.806Z,13.3
2022-10-01T16:33:00.712Z,13.1
2022-10-01T16:36:00.732Z,13.1
2022-10-01T16:39:00.784Z,13.1
2022-10-01T16:42:23.637Z,12.9
2022-10-01T16:45:00.771Z,12.9
2022-10-01T16:48:00.775Z,12.9
2022-10-01T16:51:00.767Z,12.9
2022-10-01T16:54:00.842Z,12.9
2022-10-01T16:57:00.747Z,12.9
2022-10-01T17:00:00.750Z,12.7
2022-10-01T17:03:00.709Z,12.7
2022-10-01T17:06:00.770Z,12.6
2022-10-01T17:09:00.710Z,12.6
2022-10-01T17:12:00.713Z,12.5
2022-10-01T17:15:00.774Z,12.5
2022-10-01T17:18:00.692Z,12.5
2022-10-01T17:21:00.856Z,12.5
2022-10-01T17:24:00.745Z,12.5
2022-10-01T17:27:00.721Z,12.5
2022-10-01T17:30:00.754Z,12.5
2022-10-01T17:33:00.693Z,12.4
2022-10-01T17:36:00.742Z,12.4
2022-10-01T17:39:00.695Z,12.4
2022-10-01T17:42:00.721Z,12.4
2022-10-01T17:45:00.717Z,12.4
2022-10-01T17:48:00.733Z,12.2
2022-10-01T17:51:00.835Z,12.2
2022-10-01T17:54:00.718Z,12.2
2022-10-01T17:57:00.736Z,12.2
2022-10-01T18:00:00.896Z,12.2
2022-10-01T18:03:00.844Z,12.2
2022-10-01T18:06:00.693Z,12.2
2022-10-01T18:09:00.766Z,12.2
2022-10-01T18:12:00.778Z,12.2
2022-10-01T18:15:00.726Z,12.2
2022-10-01T18:21:00.760Z,12.2
2022-10-01T18:24:04.891Z,12.2
2022-10-01T18:27:00.772Z,12.2
2022-10-01T18:30:00.725Z,12.2
2022-10-01T18:33:00.735Z,12.2
2022-10-01T18:36:00.754Z,12.2
2022-10-01T18:39:00.711Z,12.2
2022-10-01T18:42:00.744Z,12.2
2022-10-01T18:45:00.742Z,12.2
2022-10-01T18:48:00.770Z,12.2
2022-10-01T18:51:00.736Z,12.2
2022-10-01T18:54:00.948Z,12.2
2022-10-01T18:57:00.731Z,12.2
2022-10-01T19:00:00.759Z,12.2
2022-10-01T19:03:00.706Z,12.2
2022-10-01T19:06:00.734Z,12.2
2022-10-01T19:09:00.768Z,12.1
2022-10-01T19:12:00.733Z,12.1
2022-10-01T19:15:00.732Z,12.1
2022-10-01T19:18:00.740Z,12.1
2022-10-01T19:21:00.767Z,12.1
2022-10-01T19:24:00.743Z,12.1
2022-10-01T19:27:00.829Z,12.1
2022-10-01T19:30:00.725Z,12.1
2022-10-01T19:33:00.760Z,12.1
2022-10-01T19:36:00.749Z,12.1
2022-10-01T19:39:00.789Z,12.1
2022-10-01T19:42:00.737Z,12.1
2022-10-01T19:45:00.718Z,12.1
2022-10-01T19:48:00.733Z,12.1
2022-10-01T19:51:00.705Z,12.1
2022-10-01T19:54:00.764Z,12.1
2022-10-01T19:57:00.701Z,12.1
2022-10-01T20:00:00.748Z,12.1
2022-10-01T20:03:00.719Z,12
2022-10-01T20:06:00.707Z,12
2022-10-01T20:09:00.707Z,11.9
2022-10-01T20:12:00.765Z,11.9
2022-10-01T20:15:00.715Z,11.9
2022-10-01T20:18:00.735Z,11.9
2022-10-01T20:21:00.723Z,11.9
2022-10-01T20:24:00.720Z,11.9
2022-10-01T20:27:00.752Z,11.9
2022-10-01T20:30:00.747Z,11.8
2022-10-01T20:33:00.688Z,11.8
2022-10-01T20:36:00.717Z,11.8
2022-10-01T20:39:00.746Z,11.8
2022-10-01T20:42:00.742Z,11.8
2022-10-01T20:45:00.889Z,11.8
2022-10-01T20:48:00.741Z,11.8
2022-10-01T20:51:00.731Z,11.7
2022-10-01T20:54:00.756Z,11.7
2022-10-01T20:57:00.719Z,11.7
2022-10-01T21:00:00.794Z,11.7
2022-10-01T21:03:00.734Z,11.7
2022-10-01T21:06:00.879Z,11.7
2022-10-01T21:09:00.700Z,11.7
2022-10-01T21:12:00.822Z,11.7
2022-10-01T21:15:00.665Z,11.7
2022-10-01T21:18:00.743Z,11.7
2022-10-01T21:21:00.814Z,11.6
2022-10-01T21:24:00.723Z,11.6
2022-10-01T21:27:00.703Z,11.6
2022-10-01T21:30:00.769Z,11.6
2022-10-01T21:33:02.797Z,11.6
2022-10-01T21:36:01.468Z,11.6
2022-10-01T21:39:00.691Z,11.6
2022-10-01T21:42:00.817Z,11.6
2022-10-01T21:45:00.737Z,11.6
2022-10-01T21:48:00.712Z,11.6
2022-10-01T21:51:00.711Z,11.6
2022-10-01T21:54:00.726Z,11.6
2022-10-01T21:57:00.699Z,11.6
2022-10-01T22:00:02.133Z,11.6
2022-10-01T22:03:00.725Z,11.6
2022-10-01T22:06:00.726Z,11.6
2022-10-01T22:09:00.731Z,11.6
2022-10-01T22:12:00.713Z,11.5
2022-10-01T22:15:00.708Z,11.5
2022-10-01T22:18:00.785Z,11.5
2022-10-01T22:21:00.696Z,11.5
2022-10-01T22:24:00.725Z,11.5
2022-10-01T22:27:00.732Z,11.5
2022-10-01T22:30:00.756Z,11.5
2022-10-01T22:33:00.731Z,11.5
2022-10-01T22:36:00.705Z,11.5
2022-10-01T22:39:00.750Z,11.5
2022-10-01T22:42:00.743Z,11.5
2022-10-01T22:45:00.702Z,11.5
2022-10-01T22:48:00.749Z,11.5
2022-10-01T22:51:00.677Z,11.5
2022-10-01T22:54:00.747Z,11.5
2022-10-01T22:57:00.709Z,11.5
2022-10-01T23:00:00.773Z,11.5
2022-10-01T23:03:00.732Z,11.3
2022-10-01T23:06:00.747Z,11.3
2022-10-01T23:09:00.772Z,11.3
2022-10-01T23:12:00.750Z,11.3
2022-10-01T23:15:00.705Z,11.3
2022-10-01T23:18:00.720Z,11.3
2022-10-01T23:21:00.707Z,11.3
2022-10-01T23:24:00.694Z,11.3
2022-10-01T23:27:00.732Z,11.3
2022-10-01T23:30:00.845Z,11.3
2022-10-01T23:33:00.714Z,11.3
2022-10-01T23:36:00.737Z,11.3
2022-10-01T23:39:00.710Z,11.3
2022-10-01T23:42:00.761Z,11.3
2022-10-01T23:45:00.714Z,11.2
2022-10-01T23:48:00.804Z,11.2
2022-10-01T23:51:00.763Z,11.2
2022-10-01T23:54:00.725Z,11.2
2022-10-01T23:57:00.704Z,11.2
